createdAt,value
2022-11-05T00:02:50.345Z,11.15
2022-11-05T00:13:12.766Z,11.08
2022-11-05T00:23:34.843Z,11.02
2022-11-05T00:33:38.023Z,10.81
2022-11-05T00:44:00.564Z,10.69
2022-11-05T00:54:03.448Z,10.85
2022-11-05T01:04:07.655Z,10.84
2022-11-05T01:14:12.657Z,10.78
2022-11-05T01:24:16.960Z,10.58
2022-11-05T01:34:20.039Z,10.43
2022-11-05T01:45:01.681Z,10.52
2022-11-05T01:55:08.479Z,10.20
2022-11-05T02:05:14.937Z,10.00
2022-11-05T02:15:29.547Z,10.11
2022-11-05T02:25:57.249Z,10.21
2022-11-05T02:36:22.970Z,10.00
2022-11-05T02:46:35.004Z,9.84
2022-11-05T02:56:42.925Z,9.99
2022-11-05T03:07:01.985Z,10.13
2022-11-05T03:17:12.354Z,10.13
2022-11-05T03:27:19.981Z,10.01
2022-11-05T03:37:26.239Z,10.03
2022-11-05T03:47:33.732Z,10.01
2022-11-05T03:57:43.145Z,10.10
2022-11-05T04:08:03.962Z,10.08
2022-11-05T04:18:08.318Z,10.00
2022-11-05T04:28:11.388Z,9.91
2022-11-05T04:38:17.680Z,9.81
2022-11-05T04:48:20.760Z,9.77
2022-11-05T04:58:25.205Z,9.72
2022-11-05T05:08:28.084Z,9.70
2022-11-05T05:18:32.388Z,9.75
2022-11-05T05:28:35.199Z,9.45
2022-11-05T05:38:40.307Z,9.30
2022-11-05T05:48:44.074Z,9.43
2022-11-05T05:58:48.919Z,9.22
2022-11-05T06:08:52.151Z,8.98
2022-11-05T06:18:56.480Z,9.21
2022-11-05T06:28:59.606Z,8.99
2022-11-05T06:39:04.136Z,9.06
2022-11-05T06:49:08.037Z,8.84
2022-11-05T06:59:12.494Z,8.91
2022-11-05T07:09:15.380Z,8.79
2022-11-05T07:19:19.626Z,8.71
2022-11-05T07:29:22.708Z,8.84
2022-11-05T07:39:27.197Z,8.84
2022-11-05T07:49:30.367Z,9.14
2022-11-05T07:59:34.838Z,9.20
2022-11-05T08:09:37.921Z,9.39
2022-11-05T08:19:42.263Z,9.65
2022-11-05T08:29:45.564Z,9.80
2022-11-05T08:39:50.044Z,9.85
2022-11-05T08:49:54.723Z,10.00
2022-11-05T08:59:58.965Z,9.91
2022-11-05T09:10:02.080Z,10.12
2022-11-05T09:20:08.023Z,10.37
2022-11-05T09:30:13.360Z,10.47
2022-11-05T09:40:19.286Z,10.86
2022-11-05T09:50:27.947Z,11.19
2022-11-05T10:00:33.749Z,11.22
2022-11-05T10:10:42.756Z,11.36
2022-11-05T10:20:47.490Z,11.54
2022-11-05T10:30:58.701Z,11.85
2022-11-05T10:41:31.467Z,12.07
2022-11-05T10:51:34.905Z,12.10
2022-11-05T11:01:39.462Z,12.24
2022-11-05T11:11:43.918Z,12.56
2022-11-05T11:22:09.243Z,12.84
2022-11-05T11:32:15.596Z,13.07
2022-11-05T11:42:24.615Z,13.23
2022-11-05T11:52:31.663Z,13.03
2022-11-05T12:03:01.918Z,13.15
2022-11-05T12:13:31.286Z,12.98
2022-11-05T12:23:54.361Z,13.38
2022-11-05T12:34:09.465Z,13.29
2022-11-05T12:44:27.127Z,12.94
2022-11-05T12:54:45.650Z,12.72
2022-11-05T13:04:54.342Z,12.69
2022-11-05T13:15:00.520Z,12.61
2022-11-05T13:25:13.015Z,12.62
2022-11-05T13:35:18.853Z,12.61
2022-11-05T13:45:48.136Z,12.58
2022-11-05T13:56:14.109Z,12.53
2022-11-05T14:06:26.363Z,12.55
2022-11-05T14:16:47.140Z,12.49
2022-11-05T14:27:25.986Z,12.41
2022-11-05T14:37:33.937Z,12.35
2022-11-05T14:47:40.149Z,12.29
2022-11-05T14:58:06.611Z,12.26
2022-11-05T15:08:33.579Z,12.20
2022-11-05T15:18:44.390Z,12.12
2022-11-05T15:28:49.487Z,12.03
2022-11-05T15:39:23.093Z,12.05
2022-11-05T15:49:17.806Z,11.93
2022-11-05T15:59:24.272Z,11.94
2022-11-05T16:09:28.881Z,11.77
2022-11-05T16:19:40.847Z,11.75
2022-11-05T16:29:50.902Z,11.57
2022-11-05T16:39:55.270Z,11.63
2022-11-05T16:49:58.566Z,11.43
2022-11-05T17:00:02.974Z,11.26
2022-11-05T17:10:06.341Z,11.11
2022-11-05T17:20:17.831Z,10.94
2022-11-05T17:30:20.778Z,11.04
2022-11-05T17:40:25.991Z,10.98
2022-11-05T17:50:28.952Z,10.96
2022-11-05T18:00:33.364Z,10.91
2022-11-05T18:10:37.872Z,10.95
2022-11-05T18:20:43.238Z,10.93
2022-11-05T18:30:46.389Z,10.97
2022-11-05T18:40:51.734Z,10.98
2022-11-05T18:51:00.659Z,10.96
2022-11-05T19:01:13.358Z,10.95
2022-11-05T19:11:18.316Z,10.98
2022-11-05T19:21:25.120Z,11.00
2022-11-05T19:31:28.529Z,11.05
2022-11-05T19:41:33.146Z,11.09
2022-11-05T19:51:36.334Z,11.03
2022-11-05T20:01:41.082Z,11.16
2022-11-05T20:11:45.458Z,11.20
2022-11-05T20:21:49.963Z,11.20
2022-11-05T20:31:53.799Z,11.47
2022-11-05T20:42:00.573Z,11.12
2022-11-05T20:52:03.867Z,11.07
2022-11-05T21:02:08.443Z,10.98
2022-11-05T21:12:12.594Z,10.96
2022-11-05T21:22:17.175Z,10.91
2022-11-05T21:32:20.277Z,11.01
2022-11-05T21:42:24.738Z,10.95
2022-11-05T21:52:46.755Z,10.91
2022-11-05T22:02:51.204Z,10.84
2022-11-05T22:12:54.702Z,10.65
2022-11-05T22:22:59.011Z,10.62
2022-11-05T22:33:02.432Z,10.52
2022-11-05T22:43:06.523Z,10.61
2022-11-05T22:53:09.346Z,10.43
2022-11-05T23:03:14.278Z,10.51
2022-11-05T23:13:17.481Z,10.40
2022-11-05T23:23:39.540Z,10.42
2022-11-05T23:33:42.680Z,10.40
2022-11-05T23:44:04.745Z,10.37
2022-11-05T23:54:07.766Z,10.35
